sensor_id;sensor_type;location;lat;lon;timestamp;P1;durP1;ratioP1;P2;durP2;ratioP2
47599;SDS011;33323;52.124;6.018;2023-03-01T00:01:18;3.38;;;2.83;;
47599;SDS011;33323;52.124;6.018;2023-03-01T00:03:48;4.65;;;2.80;;
47599;SDS011;33323;52.124;6.018;2023-03-01T00:06:16;6.00;;;3.10;;
47599;SDS011;33323;52.124;6.018;2023-03-01T00:08:44;4.88;;;3.35;;
47599;SDS011;33323;52.124;6.018;2023-03-01T00:11:21;6.38;;;3.55;;
47599;SDS011;33323;52.124;6.018;2023-03-01T00:13:55;6.32;;;3.75;;
47599;SDS011;33323;52.124;6.018;2023-03-01T00:16:26;7.25;;;3.42;;
47599;SDS011;33323;52.124;6.018;2023-03-01T00:19:00;5.53;;;3.25;;
47599;SDS011;33323;52.124;6.018;2023-03-01T00:21:27;5.75;;;3.78;;
47599;SDS011;33323;52.124;6.018;2023-03-01T00:23:55;6.65;;;3.35;;
47599;SDS011;33323;52.124;6.018;2023-03-01T00:26:23;5.20;;;3.97;;
47599;SDS011;33323;52.124;6.018;2023-03-01T00:28:52;7.25;;;4.47;;
47599;SDS011;33323;52.124;6.018;2023-03-01T00:31:22;4.50;;;3.47;;
47599;SDS011;33323;52.124;6.018;2023-03-01T00:33:55;6.65;;;4.65;;
47599;SDS011;33323;52.124;6.018;2023-03-01T00:36:25;4.90;;;3.90;;
47599;SDS011;33323;52.124;6.018;2023-03-01T00:38:59;4.68;;;3.53;;
47599;SDS011;33323;52.124;6.018;2023-03-01T00:41:26;5.57;;;3.67;;
47599;SDS011;33323;52.124;6.018;2023-03-01T00:43:53;7.40;;;4.60;;
47599;SDS011;33323;52.124;6.018;2023-03-01T00:46:22;6.13;;;3.85;;
47599;SDS011;33323;52.124;6.018;2023-03-01T00:48:52;7.13;;;4.68;;
47599;SDS011;33323;52.124;6.018;2023-03-01T00:51:25;5.38;;;3.70;;
47599;SDS011;33323;52.124;6.018;2023-03-01T00:53:56;5.85;;;3.92;;
47599;SDS011;33323;52.124;6.018;2023-03-01T00:56:26;5.47;;;3.75;;
47599;SDS011;33323;52.124;6.018;2023-03-01T00:58:54;5.68;;;4.28;;
47599;SDS011;33323;52.124;6.018;2023-03-01T01:01:23;7.85;;;4.20;;
47599;SDS011;33323;52.124;6.018;2023-03-01T01:03:57;6.95;;;4.10;;
47599;SDS011;33323;52.124;6.018;2023-03-01T01:06:32;8.20;;;4.28;;
47599;SDS011;33323;52.124;6.018;2023-03-01T01:09:03;4.75;;;3.65;;
47599;SDS011;33323;52.124;6.018;2023-03-01T01:11:31;6.25;;;3.78;;
47599;SDS011;33323;52.124;6.018;2023-03-01T01:13:59;7.47;;;4.20;;
47599;SDS011;33323;52.124;6.018;2023-03-01T01:16:28;10.80;;;5.65;;
47599;SDS011;33323;52.124;6.018;2023-03-01T01:18:56;5.40;;;4.00;;
47599;SDS011;33323;52.124;6.018;2023-03-01T01:21:24;7.53;;;4.50;;
47599;SDS011;33323;52.124;6.018;2023-03-01T01:23:52;7.32;;;3.83;;
47599;SDS011;33323;52.124;6.018;2023-03-01T01:26:20;7.85;;;4.03;;
47599;SDS011;33323;52.124;6.018;2023-03-01T01:29:00;7.05;;;4.07;;
47599;SDS011;33323;52.124;6.018;2023-03-01T01:31:28;7.05;;;3.75;;
47599;SDS011;33323;52.124;6.018;2023-03-01T01:33:58;6.70;;;4.07;;
47599;SDS011;33323;52.124;6.018;2023-03-01T01:36:27;9.07;;;4.53;;
47599;SDS011;33323;52.124;6.018;2023-03-01T01:38:54;7.63;;;4.68;;
47599;SDS011;33323;52.124;6.018;2023-03-01T01:41:22;6.43;;;4.88;;
47599;SDS011;33323;52.124;6.018;2023-03-01T01:46:42;8.55;;;4.28;;
47599;SDS011;33323;52.124;6.018;2023-03-01T01:51:55;6.93;;;4.27;;
47599;SDS011;33323;52.124;6.018;2023-03-01T01:54:33;10.27;;;5.25;;
47599;SDS011;33323;52.124;6.018;2023-03-01T01:57:37;9.38;;;5.20;;
47599;SDS011;33323;52.124;6.018;2023-03-01T02:00:10;7.25;;;5.35;;
47599;SDS011;33323;52.124;6.018;2023-03-01T02:02:43;10.15;;;5.45;;
47599;SDS011;33323;52.124;6.018;2023-03-01T02:08:01;8.45;;;4.68;;
47599;SDS011;33323;52.124;6.018;2023-03-01T02:10:28;10.43;;;5.18;;
47599;SDS011;33323;52.124;6.018;2023-03-01T02:12:59;6.63;;;4.78;;
47599;SDS011;33323;52.124;6.018;2023-03-01T02:15:31;9.45;;;5.05;;
47599;SDS011;33323;52.124;6.018;2023-03-01T02:18:03;8.38;;;4.78;;
47599;SDS011;33323;52.124;6.018;2023-03-01T02:23:22;9.02;;;4.72;;
47599;SDS011;33323;52.124;6.018;2023-03-01T02:25:55;9.07;;;4.55;;
47599;SDS011;33323;52.124;6.018;2023-03-01T02:28:37;7.70;;;5.03;;
47599;SDS011;33323;52.124;6.018;2023-03-01T02:31:07;11.23;;;4.82;;
47599;SDS011;33323;52.124;6.018;2023-03-01T02:33:55;7.05;;;5.22;;
47599;SDS011;33323;52.124;6.018;2023-03-01T02:36:24;8.98;;;5.05;;
47599;SDS011;33323;52.124;6.018;2023-03-01T02:38:57;7.95;;;4.60;;
47599;SDS011;33323;52.124;6.018;2023-03-01T02:41:27;6.78;;;4.47;;
47599;SDS011;33323;52.124;6.018;2023-03-01T02:43:57;6.65;;;4.97;;
47599;SDS011;33323;52.124;6.018;2023-03-01T02:46:25;8.52;;;4.70;;
47599;SDS011;33323;52.124;6.018;2023-03-01T02:48:54;8.32;;;4.93;;
47599;SDS011;33323;52.124;6.018;2023-03-01T02:52:10;7.05;;;5.05;;
47599;SDS011;33323;52.124;6.018;2023-03-01T02:57:28;12.93;;;4.83;;
47599;SDS011;33323;52.124;6.018;2023-03-01T02:59:57;10.02;;;5.18;;
47599;SDS011;33323;52.124;6.018;2023-03-01T03:02:34;11.15;;;5.32;;
47599;SDS011;33323;52.124;6.018;2023-03-01T03:05:24;13.43;;;5.15;;
47599;SDS011;33323;52.124;6.018;2023-03-01T03:07:58;5.53;;;4.28;;
47599;SDS011;33323;52.124;6.018;2023-03-01T03:10:32;8.32;;;4.75;;
47599;SDS011;33323;52.124;6.018;2023-03-01T03:13:10;7.70;;;5.50;;
47599;SDS011;33323;52.124;6.018;2023-03-01T03:15:42;10.98;;;5.15;;
47599;SDS011;33323;52.124;6.018;2023-03-01T03:18:17;9.57;;;5.15;;
47599;SDS011;33323;52.124;6.018;2023-03-01T03:20:45;6.45;;;4.63;;
47599;SDS011;33323;52.124;6.018;2023-03-01T03:23:13;7.18;;;5.03;;
47599;SDS011;33323;52.124;6.018;2023-03-01T03:25:40;8.23;;;4.93;;
47599;SDS011;33323;52.124;6.018;2023-03-01T03:28:07;13.68;;;5.13;;
47599;SDS011;33323;52.124;6.018;2023-03-01T03:30:38;9.48;;;4.95;;
47599;SDS011;33323;52.124;6.018;2023-03-01T03:33:07;11.07;;;5.75;;
47599;SDS011;33323;52.124;6.018;2023-03-01T03:35:43;12.65;;;6.18;;
47599;SDS011;33323;52.124;6.018;2023-03-01T03:38:14;7.35;;;5.07;;
47599;SDS011;33323;52.124;6.018;2023-03-01T03:40:44;8.35;;;5.07;;
47599;SDS011;33323;52.124;6.018;2023-03-01T03:43:17;16.88;;;6.10;;
47599;SDS011;33323;52.124;6.018;2023-03-01T03:45:48;7.88;;;4.65;;
47599;SDS011;33323;52.124;6.018;2023-03-01T03:48:17;8.48;;;5.20;;
47599;SDS011;33323;52.124;6.018;2023-03-01T03:50:48;8.60;;;5.95;;
47599;SDS011;33323;52.124;6.018;2023-03-01T03:53:21;8.07;;;4.85;;
47599;SDS011;33323;52.124;6.018;2023-03-01T03:55:50;10.20;;;5.30;;
47599;SDS011;33323;52.124;6.018;2023-03-01T03:58:18;6.88;;;5.18;;
47599;SDS011;33323;52.124;6.018;2023-03-01T04:00:49;8.65;;;5.30;;
47599;SDS011;33323;52.124;6.018;2023-03-01T04:03:22;8.00;;;4.80;;
47599;SDS011;33323;52.124;6.018;2023-03-01T04:05:52;10.55;;;6.15;;
47599;SDS011;33323;52.124;6.018;2023-03-01T04:08:20;11.52;;;5.55;;
47599;SDS011;33323;52.124;6.018;2023-03-01T04:10:50;9.70;;;5.85;;
47599;SDS011;33323;52.124;6.018;2023-03-01T04:13:20;8.48;;;5.53;;
47599;SDS011;33323;52.124;6.018;2023-03-01T04:15:51;8.80;;;5.10;;
47599;SDS011;33323;52.124;6.018;2023-03-01T04:18:20;8.93;;;4.55;;
47599;SDS011;33323;52.124;6.018;2023-03-01T04:20:50;6.80;;;4.80;;
47599;SDS011;33323;52.124;6.018;2023-03-01T04:23:19;9.98;;;5.38;;
47599;SDS011;33323;52.124;6.018;2023-03-01T04:25:51;9.43;;;5.68;;
47599;SDS011;33323;52.124;6.018;2023-03-01T04:28:32;12.07;;;5.43;;
47599;SDS011;33323;52.124;6.018;2023-03-01T04:31:07;8.45;;;4.65;;
47599;SDS011;33323;52.124;6.018;2023-03-01T04:33:43;8.50;;;5.35;;
47599;SDS011;33323;52.124;6.018;2023-03-01T04:36:14;7.07;;;4.75;;
47599;SDS011;33323;52.124;6.018;2023-03-01T04:38:44;8.60;;;5.75;;
47599;SDS011;33323;52.124;6.018;2023-03-01T04:41:14;7.75;;;4.97;;
47599;SDS011;33323;52.124;6.018;2023-03-01T04:43:45;7.85;;;4.93;;
47599;SDS011;33323;52.124;6.018;2023-03-01T04:46:15;13.55;;;5.60;;
47599;SDS011;33323;52.124;6.018;2023-03-01T04:48:45;10.25;;;5.55;;
47599;SDS011;33323;52.124;6.018;2023-03-01T04:51:15;7.80;;;4.93;;
47599;SDS011;33323;52.124;6.018;2023-03-01T04:53:43;8.25;;;5.03;;
47599;SDS011;33323;52.124;6.018;2023-03-01T04:56:10;6.95;;;4.68;;
47599;SDS011;33323;52.124;6.018;2023-03-01T04:58:40;8.23;;;5.07;;
47599;SDS011;33323;52.124;6.018;2023-03-01T05:01:08;9.02;;;5.40;;
47599;SDS011;33323;52.124;6.018;2023-03-01T05:03:42;10.68;;;4.45;;
47599;SDS011;33323;52.124;6.018;2023-03-01T05:06:11;7.10;;;5.07;;
47599;SDS011;33323;52.124;6.018;2023-03-01T05:08:39;8.52;;;5.07;;
47599;SDS011;33323;52.124;6.018;2023-03-01T05:11:07;7.95;;;4.57;;
47599;SDS011;33323;52.124;6.018;2023-03-01T05:13:35;7.68;;;4.63;;
47599;SDS011;33323;52.124;6.018;2023-03-01T05:16:04;10.27;;;5.13;;
47599;SDS011;33323;52.124;6.018;2023-03-01T05:18:33;8.65;;;5.03;;
47599;SDS011;33323;52.124;6.018;2023-03-01T05:21:02;9.40;;;5.47;;
47599;SDS011;33323;52.124;6.018;2023-03-01T05:23:33;9.98;;;4.97;;
47599;SDS011;33323;52.124;6.018;2023-03-01T05:26:01;10.18;;;4.47;;
47599;SDS011;33323;52.124;6.018;2023-03-01T05:28:32;8.98;;;5.82;;
47599;SDS011;33323;52.124;6.018;2023-03-01T05:30:59;9.15;;;5.43;;
47599;SDS011;33323;52.124;6.018;2023-03-01T05:33:27;9.10;;;5.32;;
47599;SDS011;33323;52.124;6.018;2023-03-01T05:35:54;9.02;;;5.88;;
47599;SDS011;33323;52.124;6.018;2023-03-01T05:38:26;9.45;;;5.68;;
47599;SDS011;33323;52.124;6.018;2023-03-01T05:40:52;8.82;;;4.70;;
47599;SDS011;33323;52.124;6.018;2023-03-01T05:43:19;8.75;;;5.75;;
47599;SDS011;33323;52.124;6.018;2023-03-01T05:45:46;10.60;;;5.20;;
47599;SDS011;33323;52.124;6.018;2023-03-01T05:48:13;9.10;;;4.72;;
47599;SDS011;33323;52.124;6.018;2023-03-01T05:50:41;9.88;;;5.82;;
47599;SDS011;33323;52.124;6.018;2023-03-01T05:53:12;8.30;;;5.03;;
47599;SDS011;33323;52.124;6.018;2023-03-01T05:55:45;9.18;;;5.78;;
47599;SDS011;33323;52.124;6.018;2023-03-01T05:58:14;9.23;;;5.25;;
47599;SDS011;33323;52.124;6.018;2023-03-01T06:00:46;7.15;;;4.88;;
47599;SDS011;33323;52.124;6.018;2023-03-01T06:03:16;11.02;;;5.32;;
47599;SDS011;33323;52.124;6.018;2023-03-01T06:05:43;9.10;;;5.55;;
47599;SDS011;33323;52.124;6.018;2023-03-01T06:08:11;9.93;;;4.60;;
47599;SDS011;33323;52.124;6.018;2023-03-01T06:10:39;7.93;;;5.40;;
47599;SDS011;33323;52.124;6.018;2023-03-01T06:13:07;9.50;;;5.68;;
47599;SDS011;33323;52.124;6.018;2023-03-01T06:15:34;9.27;;;5.10;;
47599;SDS011;33323;52.124;6.018;2023-03-01T06:18:01;7.85;;;5.63;;
47599;SDS011;33323;52.124;6.018;2023-03-01T06:20:28;10.82;;;6.10;;
47599;SDS011;33323;52.124;6.018;2023-03-01T06:22:55;8.15;;;5.40;;
47599;SDS011;33323;52.124;6.018;2023-03-01T06:25:24;11.73;;;5.70;;
47599;SDS011;33323;52.124;6.018;2023-03-01T06:27:52;9.07;;;4.90;;
47599;SDS011;33323;52.124;6.018;2023-03-01T06:30:20;10.52;;;4.90;;
47599;SDS011;33323;52.124;6.018;2023-03-01T06:32:49;9.73;;;5.40;;
47599;SDS011;33323;52.124;6.018;2023-03-01T06:35:17;7.35;;;4.75;;
47599;SDS011;33323;52.124;6.018;2023-03-01T06:37:46;10.00;;;6.78;;
47599;SDS011;33323;52.124;6.018;2023-03-01T06:40:14;7.57;;;5.10;;
47599;SDS011;33323;52.124;6.018;2023-03-01T06:42:43;9.57;;;6.05;;
47599;SDS011;33323;52.124;6.018;2023-03-01T06:45:15;15.50;;;5.45;;
47599;SDS011;33323;52.124;6.018;2023-03-01T06:47:45;11.50;;;5.75;;
47599;SDS011;33323;52.124;6.018;2023-03-01T06:50:12;10.00;;;5.13;;
47599;SDS011;33323;52.124;6.018;2023-03-01T06:52:40;10.70;;;5.78;;
47599;SDS011;33323;52.124;6.018;2023-03-01T06:55:07;9.85;;;5.97;;
47599;SDS011;33323;52.124;6.018;2023-03-01T06:57:34;10.02;;;6.22;;
47599;SDS011;33323;52.124;6.018;2023-03-01T07:00:02;9.98;;;5.50;;
47599;SDS011;33323;52.124;6.018;2023-03-01T07:02:30;11.10;;;5.05;;
47599;SDS011;33323;52.124;6.018;2023-03-01T07:04:58;10.18;;;5.80;;
47599;SDS011;33323;52.124;6.018;2023-03-01T07:07:25;9.70;;;5.68;;
47599;SDS011;33323;52.124;6.018;2023-03-01T07:09:52;9.48;;;5.65;;
47599;SDS011;33323;52.124;6.018;2023-03-01T07:12:20;8.63;;;5.32;;
47599;SDS011;33323;52.124;6.018;2023-03-01T07:14:47;13.02;;;6.10;;
47599;SDS011;33323;52.124;6.018;2023-03-01T07:17:14;10.65;;;5.97;;
47599;SDS011;33323;52.124;6.018;2023-03-01T07:19:41;10.55;;;6.78;;
47599;SDS011;33323;52.124;6.018;2023-03-01T07:22:08;9.35;;;5.40;;
47599;SDS011;33323;52.124;6.018;2023-03-01T07:24:35;10.32;;;5.70;;
47599;SDS011;33323;52.124;6.018;2023-03-01T07:27:02;8.98;;;5.47;;
47599;SDS011;33323;52.124;6.018;2023-03-01T07:29:29;10.23;;;6.38;;
47599;SDS011;33323;52.124;6.018;2023-03-01T07:31:57;14.30;;;5.78;;
47599;SDS011;33323;52.124;6.018;2023-03-01T07:34:24;10.25;;;5.78;;
47599;SDS011;33323;52.124;6.018;2023-03-01T07:36:52;9.77;;;6.18;;
47599;SDS011;33323;52.124;6.018;2023-03-01T07:39:19;8.63;;;5.88;;
47599;SDS011;33323;52.124;6.018;2023-03-01T07:41:51;17.50;;;8.73;;
47599;SDS011;33323;52.124;6.018;2023-03-01T07:44:21;17.80;;;9.95;;
47599;SDS011;33323;52.124;6.018;2023-03-01T07:46:48;13.75;;;7.80;;
47599;SDS011;33323;52.124;6.018;2023-03-01T07:49:18;17.67;;;9.10;;
47599;SDS011;33323;52.124;6.018;2023-03-01T07:51:46;27.35;;;13.38;;
47599;SDS011;33323;52.124;6.018;2023-03-01T07:54:13;22.00;;;11.32;;
47599;SDS011;33323;52.124;6.018;2023-03-01T07:56:40;17.17;;;9.25;;
47599;SDS011;33323;52.124;6.018;2023-03-01T07:59:07;16.75;;;8.50;;
47599;SDS011;33323;52.124;6.018;2023-03-01T08:01:34;18.13;;;9.18;;
47599;SDS011;33323;52.124;6.018;2023-03-01T08:04:02;14.85;;;8.18;;
47599;SDS011;33323;52.124;6.018;2023-03-01T08:06:30;14.40;;;7.97;;
47599;SDS011;33323;52.124;6.018;2023-03-01T08:08:59;14.80;;;8.18;;
47599;SDS011;33323;52.124;6.018;2023-03-01T08:11:27;16.33;;;8.48;;
47599;SDS011;33323;52.124;6.018;2023-03-01T08:13:55;13.15;;;8.73;;
47599;SDS011;33323;52.124;6.018;2023-03-01T08:16:22;15.48;;;8.40;;
47599;SDS011;33323;52.124;6.018;2023-03-01T08:18:50;16.45;;;9.32;;
47599;SDS011;33323;52.124;6.018;2023-03-01T08:21:17;14.45;;;8.70;;
47599;SDS011;33323;52.124;6.018;2023-03-01T08:23:45;19.08;;;10.25;;
47599;SDS011;33323;52.124;6.018;2023-03-01T08:26:14;15.43;;;8.27;;
47599;SDS011;33323;52.124;6.018;2023-03-01T08:28:45;20.80;;;9.75;;
47599;SDS011;33323;52.124;6.018;2023-03-01T08:33:46;18.75;;;9.55;;
47599;SDS011;33323;52.124;6.018;2023-03-01T08:36:18;15.88;;;9.45;;
47599;SDS011;33323;52.124;6.018;2023-03-01T08:38:45;21.20;;;9.27;;
47599;SDS011;33323;52.124;6.018;2023-03-01T08:41:12;16.92;;;9.35;;
47599;SDS011;33323;52.124;6.018;2023-03-01T08:43:40;16.05;;;9.23;;
47599;SDS011;33323;52.124;6.018;2023-03-01T08:46:08;13.77;;;9.13;;
47599;SDS011;33323;52.124;6.018;2023-03-01T08:48:35;13.93;;;7.88;;
47599;SDS011;33323;52.124;6.018;2023-03-01T08:51:10;14.10;;;8.63;;
47599;SDS011;33323;52.124;6.018;2023-03-01T08:53:39;13.35;;;8.05;;
47599;SDS011;33323;52.124;6.018;2023-03-01T08:56:07;12.68;;;7.85;;
47599;SDS011;33323;52.124;6.018;2023-03-01T08:58:36;16.33;;;8.90;;
47599;SDS011;33323;52.124;6.018;2023-03-01T09:01:09;16.90;;;7.60;;
47599;SDS011;33323;52.124;6.018;2023-03-01T09:03:37;14.95;;;8.00;;
47599;SDS011;33323;52.124;6.018;2023-03-01T09:06:05;14.75;;;9.13;;
47599;SDS011;33323;52.124;6.018;2023-03-01T09:08:34;17.50;;;7.47;;
47599;SDS011;33323;52.124;6.018;2023-03-01T09:11:04;12.70;;;7.90;;
47599;SDS011;33323;52.124;6.018;2023-03-01T09:13:33;15.73;;;7.15;;
47599;SDS011;33323;52.124;6.018;2023-03-01T09:16:01;10.65;;;6.47;;
47599;SDS011;33323;52.124;6.018;2023-03-01T09:18:31;10.45;;;6.53;;
47599;SDS011;33323;52.124;6.018;2023-03-01T09:21:06;13.45;;;6.10;;
47599;SDS011;33323;52.124;6.018;2023-03-01T09:23:40;9.50;;;5.88;;
47599;SDS011;33323;52.124;6.018;2023-03-01T09:26:11;9.80;;;7.03;;
47599;SDS011;33323;52.124;6.018;2023-03-01T09:28:42;12.10;;;5.63;;
47599;SDS011;33323;52.124;6.018;2023-03-01T09:31:12;9.68;;;6.20;;
47599;SDS011;33323;52.124;6.018;2023-03-01T09:33:42;14.73;;;6.07;;
47599;SDS011;33323;52.124;6.018;2023-03-01T09:36:16;8.93;;;5.15;;
47599;SDS011;33323;52.124;6.018;2023-03-01T09:38:45;11.48;;;5.93;;
47599;SDS011;33323;52.124;6.018;2023-03-01T09:43:44;8.65;;;5.00;;
47599;SDS011;33323;52.124;6.018;2023-03-01T09:46:22;7.35;;;4.85;;
47599;SDS011;33323;52.124;6.018;2023-03-01T09:48:55;6.97;;;4.18;;
47599;SDS011;33323;52.124;6.018;2023-03-01T09:51:30;8.02;;;5.03;;
47599;SDS011;33323;52.124;6.018;2023-03-01T09:54:00;6.15;;;4.47;;
47599;SDS011;33323;52.124;6.018;2023-03-01T09:56:32;7.57;;;4.60;;
47599;SDS011;33323;52.124;6.018;2023-03-01T10:10:15;6.65;;;3.80;;
47599;SDS011;33323;52.124;6.018;2023-03-01T10:13:02;6.88;;;4.05;;
47599;SDS011;33323;52.124;6.018;2023-03-01T10:15:42;7.20;;;3.10;;
47599;SDS011;33323;52.124;6.018;2023-03-01T10:18:17;4.75;;;2.80;;
47599;SDS011;33323;52.124;6.018;2023-03-01T10:20:50;8.70;;;3.20;;
47599;SDS011;33323;52.124;6.018;2023-03-01T10:23:27;5.40;;;2.67;;
47599;SDS011;33323;52.124;6.018;2023-03-01T10:26:08;6.25;;;3.45;;
47599;SDS011;33323;52.124;6.018;2023-03-01T10:31:38;9.10;;;3.78;;
47599;SDS011;33323;52.124;6.018;2023-03-01T10:34:21;5.40;;;3.38;;
47599;SDS011;33323;52.124;6.018;2023-03-01T10:36:56;6.60;;;3.03;;
47599;SDS011;33323;52.124;6.018;2023-03-01T10:39:31;5.15;;;3.22;;
47599;SDS011;33323;52.124;6.018;2023-03-01T10:42:01;6.70;;;2.90;;
47599;SDS011;33323;52.124;6.018;2023-03-01T10:47:08;6.25;;;3.38;;
47599;SDS011;33323;52.124;6.018;2023-03-01T10:49:56;4.93;;;2.88;;
47599;SDS011;33323;52.124;6.018;2023-03-01T10:52:33;5.20;;;2.55;;
47599;SDS011;33323;52.124;6.018;2023-03-01T10:58:07;4.78;;;2.85;;
47599;SDS011;33323;52.124;6.018;2023-03-01T11:03:34;4.28;;;2.75;;
47599;SDS011;33323;52.124;6.018;2023-03-01T11:06:25;5.60;;;3.45;;
47599;SDS011;33323;52.124;6.018;2023-03-01T11:08:52;7.80;;;3.13;;
47599;SDS011;33323;52.124;6.018;2023-03-01T11:14:03;5.75;;;3.25;;
47599;SDS011;33323;52.124;6.018;2023-03-01T11:16:59;7.40;;;3.38;;
47599;SDS011;33323;52.124;6.018;2023-03-01T11:19:42;4.63;;;2.63;;
47599;SDS011;33323;52.124;6.018;2023-03-01T11:22:19;4.53;;;3.40;;
47599;SDS011;33323;52.124;6.018;2023-03-01T11:24:53;6.20;;;3.13;;
47599;SDS011;33323;52.124;6.018;2023-03-01T11:27:36;5.97;;;3.22;;
47599;SDS011;33323;52.124;6.018;2023-03-01T11:33:30;5.93;;;2.95;;
47599;SDS011;33323;52.124;6.018;2023-03-01T11:39:29;4.50;;;3.22;;
47599;SDS011;33323;52.124;6.018;2023-03-01T11:42:11;4.10;;;3.10;;
47599;SDS011;33323;52.124;6.018;2023-03-01T11:44:46;5.32;;;2.85;;
47599;SDS011;33323;52.124;6.018;2023-03-01T11:55:41;5.45;;;3.03;;
47599;SDS011;33323;52.124;6.018;2023-03-01T12:23:54;4.20;;;2.55;;
47599;SDS011;33323;52.124;6.018;2023-03-01T12:26:34;6.57;;;2.90;;
47599;SDS011;33323;52.124;6.018;2023-03-01T12:32:36;5.00;;;2.70;;
47599;SDS011;33323;52.124;6.018;2023-03-01T12:35:47;5.05;;;2.67;;
47599;SDS011;33323;52.124;6.018;2023-03-01T12:38:50;6.38;;;2.90;;
47599;SDS011;33323;52.124;6.018;2023-03-01T12:41:50;6.28;;;3.38;;
47599;SDS011;33323;52.124;6.018;2023-03-01T12:50:26;8.82;;;2.92;;
47599;SDS011;33323;52.124;6.018;2023-03-01T12:56:38;7.45;;;2.58;;
47599;SDS011;33323;52.124;6.018;2023-03-01T12:59:17;6.35;;;2.67;;
47599;SDS011;33323;52.124;6.018;2023-03-01T13:02:07;4.47;;;2.38;;
47599;SDS011;33323;52.124;6.018;2023-03-01T13:05:47;5.20;;;3.30;;
47599;SDS011;33323;52.124;6.018;2023-03-01T13:13:48;5.35;;;2.85;;
47599;SDS011;33323;52.124;6.018;2023-03-01T13:16:39;4.45;;;2.60;;
47599;SDS011;33323;52.124;6.018;2023-03-01T13:19:16;9.55;;;2.90;;
47599;SDS011;33323;52.124;6.018;2023-03-01T13:21:48;8.25;;;3.58;;
47599;SDS011;33323;52.124;6.018;2023-03-01T13:24:26;5.75;;;3.17;;
47599;SDS011;33323;52.124;6.018;2023-03-01T13:32:24;5.07;;;3.35;;
47599;SDS011;33323;52.124;6.018;2023-03-01T13:37:46;5.93;;;2.50;;
47599;SDS011;33323;52.124;6.018;2023-03-01T13:42:47;5.97;;;2.63;;
47599;SDS011;33323;52.124;6.018;2023-03-01T13:45:40;6.68;;;2.72;;
47599;SDS011;33323;52.124;6.018;2023-03-01T13:48:21;6.30;;;2.85;;
47599;SDS011;33323;52.124;6.018;2023-03-01T13:50:57;5.68;;;2.90;;
47599;SDS011;33323;52.124;6.018;2023-03-01T13:53:33;4.10;;;2.22;;
47599;SDS011;33323;52.124;6.018;2023-03-01T13:56:20;5.28;;;3.15;;
47599;SDS011;33323;52.124;6.018;2023-03-01T13:58:55;4.88;;;3.00;;
47599;SDS011;33323;52.124;6.018;2023-03-01T14:01:32;8.45;;;2.83;;
47599;SDS011;33323;52.124;6.018;2023-03-01T14:04:02;7.60;;;2.65;;
47599;SDS011;33323;52.124;6.018;2023-03-01T14:06:46;6.57;;;2.30;;
47599;SDS011;33323;52.124;6.018;2023-03-01T14:09:20;4.90;;;3.00;;
47599;SDS011;33323;52.124;6.018;2023-03-01T14:12:11;3.90;;;2.80;;
47599;SDS011;33323;52.124;6.018;2023-03-01T14:15:08;5.60;;;2.63;;
47599;SDS011;33323;52.124;6.018;2023-03-01T14:18:10;3.45;;;2.40;;
47599;SDS011;33323;52.124;6.018;2023-03-01T14:20:48;4.10;;;2.13;;
47599;SDS011;33323;52.124;6.018;2023-03-01T14:23:22;4.55;;;2.17;;
47599;SDS011;33323;52.124;6.018;2023-03-01T14:25:51;6.43;;;1.88;;
47599;SDS011;33323;52.124;6.018;2023-03-01T14:28:22;2.85;;;1.52;;
47599;SDS011;33323;52.124;6.018;2023-03-01T14:30:54;5.38;;;2.22;;
47599;SDS011;33323;52.124;6.018;2023-03-01T14:36:01;3.97;;;2.40;;
47599;SDS011;33323;52.124;6.018;2023-03-01T14:38:41;3.40;;;2.03;;
47599;SDS011;33323;52.124;6.018;2023-03-01T14:43:47;4.07;;;2.15;;
47599;SDS011;33323;52.124;6.018;2023-03-01T14:46:25;3.95;;;1.65;;
47599;SDS011;33323;52.124;6.018;2023-03-01T14:49:09;4.28;;;1.77;;
47599;SDS011;33323;52.124;6.018;2023-03-01T14:51:42;2.35;;;1.02;;
47599;SDS011;33323;52.124;6.018;2023-03-01T14:54:20;3.83;;;1.73;;
47599;SDS011;33323;52.124;6.018;2023-03-01T14:56:52;2.53;;;1.70;;
47599;SDS011;33323;52.124;6.018;2023-03-01T14:59:24;4.40;;;2.28;;
47599;SDS011;33323;52.124;6.018;2023-03-01T15:01:51;3.67;;;2.22;;
47599;SDS011;33323;52.124;6.018;2023-03-01T15:04:22;5.43;;;1.88;;
47599;SDS011;33323;52.124;6.018;2023-03-01T15:06:51;4.13;;;2.20;;
47599;SDS011;33323;52.124;6.018;2023-03-01T15:09:22;6.18;;;2.10;;
47599;SDS011;33323;52.124;6.018;2023-03-01T15:11:49;4.35;;;1.80;;
47599;SDS011;33323;52.124;6.018;2023-03-01T15:14:26;3.00;;;1.80;;
47599;SDS011;33323;52.124;6.018;2023-03-01T15:16:55;2.88;;;2.00;;
47599;SDS011;33323;52.124;6.018;2023-03-01T15:19:23;6.78;;;1.83;;
47599;SDS011;33323;52.124;6.018;2023-03-01T15:21:54;3.35;;;1.95;;
47599;SDS011;33323;52.124;6.018;2023-03-01T15:24:25;4.22;;;1.63;;
47599;SDS011;33323;52.124;6.018;2023-03-01T15:26:58;5.47;;;2.85;;
47599;SDS011;33323;52.124;6.018;2023-03-01T15:29:32;3.90;;;1.88;;
47599;SDS011;33323;52.124;6.018;2023-03-01T15:32:22;2.38;;;1.83;;
47599;SDS011;33323;52.124;6.018;2023-03-01T15:35:01;3.83;;;2.00;;
47599;SDS011;33323;52.124;6.018;2023-03-01T15:38:24;4.53;;;2.10;;
47599;SDS011;33323;52.124;6.018;2023-03-01T15:40:55;4.70;;;2.47;;
47599;SDS011;33323;52.124;6.018;2023-03-01T15:46:26;6.07;;;2.83;;
47599;SDS011;33323;52.124;6.018;2023-03-01T15:49:05;6.03;;;2.58;;
47599;SDS011;33323;52.124;6.018;2023-03-01T15:55:03;6.00;;;2.95;;
47599;SDS011;33323;52.124;6.018;2023-03-01T15:57:33;6.28;;;3.03;;
47599;SDS011;33323;52.124;6.018;2023-03-01T16:00:00;6.20;;;2.40;;
47599;SDS011;33323;52.124;6.018;2023-03-01T16:02:30;3.85;;;2.28;;
47599;SDS011;33323;52.124;6.018;2023-03-01T16:04:57;6.82;;;2.85;;
47599;SDS011;33323;52.124;6.018;2023-03-01T16:07:24;5.88;;;3.05;;
47599;SDS011;33323;52.124;6.018;2023-03-01T16:09:53;5.63;;;2.75;;
47599;SDS011;33323;52.124;6.018;2023-03-01T16:12:20;4.93;;;2.80;;
47599;SDS011;33323;52.124;6.018;2023-03-01T16:14:47;4.35;;;3.10;;
47599;SDS011;33323;52.124;6.018;2023-03-01T16:17:14;5.97;;;2.45;;
47599;SDS011;33323;52.124;6.018;2023-03-01T16:19:42;5.97;;;3.00;;
47599;SDS011;33323;52.124;6.018;2023-03-01T16:22:09;4.22;;;2.75;;
47599;SDS011;33323;52.124;6.018;2023-03-01T16:24:37;7.72;;;3.13;;
47599;SDS011;33323;52.124;6.018;2023-03-01T16:27:04;6.40;;;3.10;;
47599;SDS011;33323;52.124;6.018;2023-03-01T16:29:32;5.65;;;3.20;;
47599;SDS011;33323;52.124;6.018;2023-03-01T16:32:00;4.60;;;2.70;;
47599;SDS011;33323;52.124;6.018;2023-03-01T16:34:28;7.15;;;2.40;;
47599;SDS011;33323;52.124;6.018;2023-03-01T16:36:55;7.03;;;2.70;;
47599;SDS011;33323;52.124;6.018;2023-03-01T16:39:22;4.43;;;2.10;;
47599;SDS011;33323;52.124;6.018;2023-03-01T16:41:49;5.43;;;2.92;;
47599;SDS011;33323;52.124;6.018;2023-03-01T16:44:16;6.30;;;3.83;;
47599;SDS011;33323;52.124;6.018;2023-03-01T16:46:43;6.90;;;3.00;;
47599;SDS011;33323;52.124;6.018;2023-03-01T16:49:10;6.53;;;2.67;;
47599;SDS011;33323;52.124;6.018;2023-03-01T16:51:37;5.75;;;3.30;;
47599;SDS011;33323;52.124;6.018;2023-03-01T16:54:04;5.35;;;2.10;;
47599;SDS011;33323;52.124;6.018;2023-03-01T16:56:31;4.85;;;2.67;;
47599;SDS011;33323;52.124;6.018;2023-03-01T16:59:00;9.18;;;2.72;;
47599;SDS011;33323;52.124;6.018;2023-03-01T17:01:31;6.03;;;2.88;;
47599;SDS011;33323;52.124;6.018;2023-03-01T17:06:38;5.35;;;2.92;;
47599;SDS011;33323;52.124;6.018;2023-03-01T17:09:05;7.65;;;3.13;;
47599;SDS011;33323;52.124;6.018;2023-03-01T17:11:32;4.95;;;2.80;;
47599;SDS011;33323;52.124;6.018;2023-03-01T17:13:59;4.20;;;2.50;;
47599;SDS011;33323;52.124;6.018;2023-03-01T17:16:26;8.55;;;3.40;;
47599;SDS011;33323;52.124;6.018;2023-03-01T17:18:53;4.65;;;3.22;;
47599;SDS011;33323;52.124;6.018;2023-03-01T17:21:20;6.72;;;2.92;;
47599;SDS011;33323;52.124;6.018;2023-03-01T17:23:47;4.60;;;3.00;;